Time;durP1;ratioP1;P1;durP2;ratioP2;P2;SDS_P1;SDS_P2;PMS_P1;PMS_P2;Temp;Humidity;BMP_temperature;BMP_pressure;BME280_temperature;BME280_humidity;BME280_pressure;Samples;Min_cycle;Max_cycle;Signal;HPM_P1;HPM_P2
2020/12/18 00:01:23;;;;;;;22.33;14.47;;;7.50;99.90;;;;;;5030147;28;20327;-80
2020/12/18 00:03:52;;;;;;;21.20;15.03;;;7.50;99.90;;;;;;5031662;28;20244;-80
2020/12/18 00:06:20;;;;;;;17.27;14.27;;;7.50;99.90;;;;;;5032095;28;20741;-79
2020/12/18 00:08:49;;;;;;;22.50;14.53;;;7.50;99.90;;;;;;5033837;28;20240;-80
2020/12/18 00:11:21;;;;;;;20.53;15.33;;;7.50;99.90;;;;;;5029192;28;20302;-79
2020/12/18 00:13:50;;;;;;;20.83;15.17;;;7.50;99.90;;;;;;5011131;28;20240;-78
2020/12/18 00:16:17;;;;;;;18.40;13.70;;;7.50;99.90;;;;;;5033981;28;20232;-79
2020/12/18 00:18:45;;;;;;;16.83;14.10;;;7.50;99.90;;;;;;5033303;28;20233;-80
2020/12/18 00:21:17;;;;;;;20.70;14.20;;;7.50;99.90;;;;;;5015464;28;20244;-81
2020/12/18 00:23:45;;;;;;;27.30;15.20;;;7.50;99.90;;;;;;5032548;28;20236;-79
2020/12/18 00:26:14;;;;;;;18.60;14.93;;;7.50;99.90;;;;;;5023817;28;20241;-79
2020/12/18 00:28:41;;;;;;;18.67;14.07;;;7.50;99.90;;;;;;5016440;28;20322;-80
2020/12/18 00:31:09;;;;;;;22.50;14.90;;;7.50;99.90;;;;;;5033627;28;20275;-79
2020/12/18 00:33:36;;;;;;;19.33;14.53;;;7.50;99.90;;;;;;5033055;28;20251;-79
2020/12/18 00:36:04;;;;;;;18.17;13.93;;;7.50;99.90;;;;;;5032651;28;20298;-79
2020/12/18 00:38:32;;;;;;;24.37;15.53;;;7.50;99.90;;;;;;5031308;28;20298;-79
2020/12/18 00:40:59;;;;;;;19.20;14.20;;;7.60;99.90;;;;;;5032719;28;20239;-79
2020/12/18 00:43:27;;;;;;;18.53;14.60;;;7.50;99.90;;;;;;5032858;28;20588;-78
2020/12/18 00:45:55;;;;;;;21.07;14.17;;;7.50;99.90;;;;;;5031549;28;20240;-79
2020/12/18 00:48:22;;;;;;;19.77;13.57;;;7.50;99.90;;;;;;5032344;28;20237;-79
2020/12/18 00:51:02;;;;;;;18.57;14.37;;;7.50;99.90;;;;;;5030553;28;20251;-78
2020/12/18 00:53:29;;;;;;;21.17;13.73;;;7.50;99.90;;;;;;5031581;28;20550;-79
2020/12/18 00:55:58;;;;;;;16.23;13.50;;;7.50;99.90;;;;;;5014370;28;20244;-79
2020/12/18 00:58:27;;;;;;;20.43;14.43;;;7.50;99.90;;;;;;5014342;28;20255;-78
2020/12/18 01:00:54;;;;;;;16.70;13.43;;;7.50;99.90;;;;;;5013786;28;20237;-79
2020/12/18 01:03:24;;;;;;;19.30;13.17;;;7.50;99.90;;;;;;5030167;28;20262;-79
2020/12/18 01:05:51;;;;;;;17.67;13.00;;;7.50;99.90;;;;;;5030154;28;20280;-79
2020/12/18 01:08:20;;;;;;;17.47;13.67;;;7.60;99.90;;;;;;5031995;28;20239;-78
2020/12/18 01:10:48;;;;;;;18.10;13.40;;;7.60;99.90;;;;;;5031669;28;20256;-79
2020/12/18 01:13:16;;;;;;;19.20;12.83;;;7.50;99.90;;;;;;5031696;28;20310;-79
2020/12/18 01:15:46;;;;;;;16.67;13.83;;;7.50;99.90;;;;;;5013075;28;20260;-79
2020/12/18 01:18:28;;;;;;;18.90;13.27;;;7.50;99.90;;;;;;5013370;28;20252;-79
2020/12/18 01:21:00;;;;;;;20.67;13.73;;;7.60;99.90;;;;;;5013766;28;20244;-79
2020/12/18 01:23:33;;;;;;;20.67;13.97;;;7.50;99.90;;;;;;5029694;28;20726;-80
2020/12/18 01:26:05;;;;;;;22.23;13.57;;;7.60;99.90;;;;;;5029886;28;20263;-79
2020/12/18 01:28:33;;;;;;;19.23;13.37;;;7.50;99.90;;;;;;5029263;28;20224;-80
2020/12/18 01:31:01;;;;;;;19.67;12.90;;;7.50;99.90;;;;;;5030735;28;20300;-79
2020/12/18 01:33:32;;;;;;;17.27;12.60;;;7.50;99.90;;;;;;5012785;28;20228;-80
2020/12/18 01:36:05;;;;;;;15.90;12.53;;;7.50;99.90;;;;;;5029753;28;20233;-79
2020/12/18 01:38:36;;;;;;;21.43;11.67;;;7.50;99.90;;;;;;5029566;28;20822;-79
2020/12/18 01:41:04;;;;;;;17.67;12.27;;;7.50;99.90;;;;;;5028876;28;20771;-79
2020/12/18 01:43:32;;;;;;;18.00;12.17;;;7.50;99.90;;;;;;5025481;28;21151;-79
2020/12/18 01:46:11;;;;;;;15.80;11.70;;;7.50;99.90;;;;;;4993931;28;20255;-78
2020/12/18 01:48:39;;;;;;;16.63;11.70;;;7.50;99.90;;;;;;5011379;28;20241;-79
2020/12/18 01:51:11;;;;;;;18.57;12.00;;;7.40;99.90;;;;;;4993769;28;20232;-79
2020/12/18 01:53:40;;;;;;;16.40;11.93;;;7.50;99.90;;;;;;4993446;28;20899;-79
2020/12/18 01:56:18;;;;;;;15.83;11.37;;;7.50;99.90;;;;;;4994185;28;20233;-79
2020/12/18 01:58:53;;;;;;;17.50;12.80;;;7.60;99.90;;;;;;5007142;28;20300;-79
2020/12/18 02:01:42;;;;;;;13.20;11.03;;;7.50;99.90;;;;;;5011000;28;20241;-79
2020/12/18 02:04:23;;;;;;;15.83;12.27;;;7.50;99.90;;;;;;5026092;28;20233;-79
2020/12/18 02:06:56;;;;;;;15.37;11.77;;;7.50;99.90;;;;;;5028907;28;20833;-79
2020/12/18 02:09:31;;;;;;;15.53;12.27;;;7.50;99.90;;;;;;5012655;28;20244;-79
2020/12/18 02:12:07;;;;;;;14.30;11.13;;;7.50;99.90;;;;;;5029431;28;20259;-79
2020/12/18 02:14:40;;;;;;;16.17;11.40;;;7.50;99.90;;;;;;5029062;28;20747;-79
2020/12/18 02:17:09;;;;;;;14.17;10.50;;;7.50;99.90;;;;;;5013163;28;20248;-79
2020/12/18 02:19:49;;;;;;;15.23;11.07;;;7.40;99.90;;;;;;5007781;28;20703;-79
2020/12/18 02:22:21;;;;;;;16.07;11.20;;;7.40;99.90;;;;;;5024288;28;20282;-78
2020/12/18 02:25:12;;;;;;;18.93;10.97;;;7.40;99.90;;;;;;5011120;28;20239;-79
2020/12/18 02:27:42;;;;;;;15.33;10.90;;;7.40;99.90;;;;;;5011837;28;20236;-80
2020/12/18 02:30:16;;;;;;;19.23;12.13;;;7.40;99.90;;;;;;5030324;28;20232;-79
2020/12/18 02:33:07;;;;;;;18.83;11.33;;;7.40;99.90;;;;;;5029293;28;20290;-80
2020/12/18 02:35:42;;;;;;;14.43;11.60;;;7.40;99.90;;;;;;5013354;28;20339;-79
2020/12/18 02:38:11;;;;;;;16.07;12.17;;;7.40;99.90;;;;;;5024511;28;20249;-79
2020/12/18 02:40:40;;;;;;;16.17;11.00;;;7.40;99.90;;;;;;5012680;28;20264;-79
2020/12/18 02:43:28;;;;;;;15.70;10.67;;;7.40;99.90;;;;;;5030517;28;20239;-79
2020/12/18 02:45:56;;;;;;;17.90;11.87;;;7.40;99.90;;;;;;5013435;28;20236;-79
2020/12/18 02:48:31;;;;;;;13.97;10.80;;;7.40;99.90;;;;;;5031485;28;20319;-79
2020/12/18 02:51:12;;;;;;;14.73;10.70;;;7.40;99.90;;;;;;5033618;28;20700;-80
2020/12/18 02:53:45;;;;;;;16.07;11.13;;;7.40;99.90;;;;;;5016120;28;20569;-79
2020/12/18 02:56:39;;;;;;;21.13;11.63;;;7.40;99.90;;;;;;4988873;28;21415;-80
2020/12/18 02:59:22;;;;;;;12.83;10.67;;;7.40;99.90;;;;;;5032828;28;20235;-79
2020/12/18 03:01:53;;;;;;;15.20;11.10;;;7.40;99.90;;;;;;5033143;28;20237;-79
2020/12/18 03:04:21;;;;;;;14.50;11.27;;;7.40;99.90;;;;;;5016301;28;20235;-79
2020/12/18 03:07:00;;;;;;;18.37;12.23;;;7.40;99.90;;;;;;5029080;28;20245;-79
2020/12/18 03:09:27;;;;;;;16.13;12.07;;;7.40;99.90;;;;;;5010367;28;20244;-79
2020/12/18 03:11:55;;;;;;;13.10;11.23;;;7.40;99.90;;;;;;5029724;28;20263;-80
2020/12/18 03:14:23;;;;;;;17.60;12.03;;;7.40;99.90;;;;;;4996747;28;20241;-79
2020/12/18 03:17:00;;;;;;;19.47;11.93;;;7.40;99.90;;;;;;4996755;28;20256;-79
2020/12/18 03:19:37;;;;;;;15.50;10.77;;;7.40;99.90;;;;;;5014612;28;20240;-79
2020/12/18 03:22:22;;;;;;;17.57;12.37;;;7.40;99.90;;;;;;5032178;28;20240;-79
2020/12/18 03:25:05;;;;;;;13.93;11.17;;;7.40;99.90;;;;;;5015718;28;20247;-79
2020/12/18 03:27:50;;;;;;;13.80;11.37;;;7.40;99.90;;;;;;5029257;28;20269;-81
2020/12/18 03:30:18;;;;;;;16.87;11.60;;;7.30;99.90;;;;;;5013566;28;20237;-79
2020/12/18 03:32:50;;;;;;;15.50;12.40;;;7.30;99.90;;;;;;4995755;28;20237;-79
2020/12/18 03:35:21;;;;;;;14.93;12.50;;;7.20;99.90;;;;;;5013337;28;20251;-79
2020/12/18 03:37:48;;;;;;;18.13;12.13;;;7.20;99.90;;;;;;5016195;28;20237;-79
2020/12/18 03:40:20;;;;;;;17.87;12.57;;;7.20;99.90;;;;;;5016410;28;20239;-79
2020/12/18 03:43:09;;;;;;;19.37;12.93;;;7.20;99.90;;;;;;5015536;28;20799;-79
2020/12/18 03:45:38;;;;;;;18.07;12.73;;;7.10;99.90;;;;;;5015673;28;20316;-80
2020/12/18 03:48:24;;;;;;;19.90;13.00;;;7.10;99.90;;;;;;5033666;28;20236;-78
2020/12/18 03:51:00;;;;;;;17.53;13.40;;;7.10;99.90;;;;;;5032313;28;20707;-78
2020/12/18 03:53:31;;;;;;;18.77;13.47;;;7.00;99.90;;;;;;5032153;28;20275;-79
2020/12/18 03:56:09;;;;;;;20.43;14.03;;;7.00;99.90;;;;;;5016172;28;20240;-79
2020/12/18 03:58:40;;;;;;;19.90;14.03;;;7.00;99.90;;;;;;5032126;28;20252;-80
2020/12/18 04:01:14;;;;;;;17.07;14.10;;;7.00;99.90;;;;;;5015242;28;20639;-79
2020/12/18 04:03:42;;;;;;;18.83;14.30;;;7.00;99.90;;;;;;5031069;28;20232;-79
2020/12/18 04:06:11;;;;;;;21.93;15.30;;;6.90;99.90;;;;;;5034279;28;20232;-80
2020/12/18 04:08:41;;;;;;;18.90;14.40;;;6.90;99.90;;;;;;5015661;28;20742;-79
2020/12/18 04:11:16;;;;;;;20.17;15.30;;;7.00;99.90;;;;;;5012084;28;20240;-79
2020/12/18 04:13:59;;;;;;;20.10;16.47;;;7.00;99.90;;;;;;5016126;28;20252;-79
2020/12/18 04:16:39;;;;;;;18.90;14.53;;;7.00;99.90;;;;;;4996496;28;20276;-78
2020/12/18 04:19:06;;;;;;;20.00;14.93;;;6.90;99.90;;;;;;5012512;28;20721;-79
2020/12/18 04:21:34;;;;;;;20.60;16.33;;;6.90;99.90;;;;;;4998841;28;20228;-79
2020/12/18 04:24:14;;;;;;;19.53;15.37;;;6.90;99.90;;;;;;5032575;28;20236;-79
2020/12/18 04:26:45;;;;;;;19.23;15.00;;;6.80;99.90;;;;;;5009851;28;20229;-79
2020/12/18 04:29:15;;;;;;;20.90;15.10;;;6.80;99.90;;;;;;5013048;28;20286;-80
2020/12/18 04:31:43;;;;;;;21.87;16.20;;;6.80;99.90;;;;;;5014979;28;20236;-79
2020/12/18 04:34:11;;;;;;;21.60;16.60;;;6.80;99.90;;;;;;5014706;28;20249;-79
2020/12/18 04:37:08;;;;;;;17.87;15.33;;;6.70;99.90;;;;;;5016547;28;20244;-79
2020/12/18 04:39:55;;;;;;;18.93;16.40;;;6.80;99.90;;;;;;5001885;28;20595;-79
2020/12/18 04:42:28;;;;;;;20.33;16.27;;;6.80;99.90;;;;;;5024829;28;20241;-79
2020/12/18 04:44:56;;;;;;;22.20;16.67;;;6.70;99.90;;;;;;5029239;28;20241;-79
2020/12/18 04:47:26;;;;;;;22.13;17.40;;;6.80;99.90;;;;;;5014142;28;20240;-80
2020/12/18 04:49:56;;;;;;;20.80;17.07;;;6.80;99.90;;;;;;4997458;28;20691;-79
2020/12/18 04:52:30;;;;;;;19.03;16.73;;;6.70;99.90;;;;;;5029987;28;20713;-78
2020/12/18 04:55:00;;;;;;;19.40;16.63;;;6.70;99.90;;;;;;5005340;28;20237;-78
2020/12/18 04:57:56;;;;;;;21.07;16.43;;;6.70;99.90;;;;;;5015162;28;20225;-79
2020/12/18 05:00:26;;;;;;;21.10;16.23;;;6.60;99.90;;;;;;4995689;28;20718;-79
2020/12/18 05:03:15;;;;;;;21.57;16.30;;;6.60;99.90;;;;;;5029986;28;20323;-79
2020/12/18 05:05:43;;;;;;;21.83;17.00;;;6.60;99.90;;;;;;5013707;28;20240;-79
2020/12/18 05:08:16;;;;;;;21.43;16.87;;;6.60;99.90;;;;;;5032421;28;20691;-79
2020/12/18 05:10:44;;;;;;;21.87;17.77;;;6.60;99.90;;;;;;5030506;28;20275;-78
2020/12/18 05:13:33;;;;;;;23.63;16.63;;;6.50;99.90;;;;;;5031495;28;20612;-79
2020/12/18 05:16:07;;;;;;;20.17;17.07;;;6.50;99.90;;;;;;5015848;28;20236;-79
2020/12/18 05:18:35;;;;;;;24.90;17.77;;;6.50;99.90;;;;;;5033084;28;20241;-80
2020/12/18 05:21:16;;;;;;;23.07;18.90;;;6.50;99.90;;;;;;5033182;28;20710;-80
2020/12/18 05:24:02;;;;;;;20.50;17.43;;;6.50;99.90;;;;;;5015123;28;20487;-80
2020/12/18 05:26:34;;;;;;;25.37;17.47;;;6.50;99.90;;;;;;5031819;28;20555;-79
2020/12/18 05:29:06;;;;;;;22.73;17.33;;;6.40;99.90;;;;;;5032079;28;20247;-80
2020/12/18 05:31:49;;;;;;;21.60;16.03;;;6.40;99.90;;;;;;5031458;28;20331;-80
2020/12/18 05:34:29;;;;;;;19.70;17.60;;;6.40;99.90;;;;;;5008914;28;20242;-78
2020/12/18 05:37:14;;;;;;;22.70;17.30;;;6.40;99.90;;;;;;5025947;28;20776;-80
2020/12/18 05:39:58;;;;;;;26.40;18.13;;;6.40;99.90;;;;;;5032325;28;20342;-80
2020/12/18 05:42:47;;;;;;;21.03;17.57;;;6.40;99.90;;;;;;5015350;28;20565;-80
2020/12/18 05:45:20;;;;;;;25.37;18.33;;;6.40;99.90;;;;;;5015187;28;20525;-79
2020/12/18 05:48:15;;;;;;;24.00;18.07;;;6.40;99.90;;;;;;5002341;28;20248;-79
2020/12/18 05:50:55;;;;;;;25.77;18.00;;;6.40;99.90;;;;;;5014418;28;20299;-79
2020/12/18 05:53:24;;;;;;;23.83;19.13;;;6.30;99.90;;;;;;5030771;28;20236;-78
2020/12/18 05:56:00;;;;;;;23.23;18.77;;;6.30;99.90;;;;;;5012288;28;20259;-80
2020/12/18 05:58:41;;;;;;;23.27;18.70;;;6.30;99.90;;;;;;5012811;28;20259;-79
2020/12/18 06:01:17;;;;;;;26.70;19.83;;;6.30;99.90;;;;;;5025878;28;20348;-80
2020/12/18 06:04:12;;;;;;;25.30;18.77;;;6.30;99.90;;;;;;5029691;28;20238;-80
2020/12/18 06:06:47;;;;;;;28.53;20.37;;;6.30;99.90;;;;;;5013443;28;20758;-79
2020/12/18 06:09:20;;;;;;;29.37;20.43;;;6.20;99.90;;;;;;5026477;28;20236;-79
2020/12/18 06:11:49;;;;;;;24.87;19.90;;;6.20;99.90;;;;;;5027639;28;20284;-79
2020/12/18 06:14:19;;;;;;;22.73;19.80;;;6.20;99.90;;;;;;5026954;28;20319;-80
2020/12/18 06:17:10;;;;;;;25.00;19.50;;;6.20;99.90;;;;;;5011779;28;20224;-81
2020/12/18 06:19:57;;;;;;;24.63;19.77;;;6.20;99.90;;;;;;5011919;28;20730;-79
2020/12/18 06:22:28;;;;;;;26.77;20.70;;;6.20;99.90;;;;;;5023776;28;20479;-79
2020/12/18 06:25:05;;;;;;;27.07;19.43;;;6.20;99.90;;;;;;5014842;28;20724;-80
2020/12/18 06:27:57;;;;;;;25.00;20.77;;;6.20;99.90;;;;;;5034388;28;20798;-80
2020/12/18 06:30:29;;;;;;;29.53;21.83;;;6.20;99.90;;;;;;5035919;28;20482;-80
2020/12/18 06:33:50;;;;;;;24.73;20.77;;;6.20;99.90;;;;;;5030457;28;20310;-81
2020/12/18 06:37:01;;;;;;;28.07;21.37;;;6.20;99.90;;;;;;5023369;28;20494;-79
2020/12/18 06:39:53;;;;;;;29.37;21.17;;;6.20;99.90;;;;;;5029069;28;20575;-79
2020/12/18 06:42:46;;;;;;;29.70;21.37;;;6.10;99.90;;;;;;5025882;28;20501;-80
2020/12/18 06:46:05;;;;;;;29.73;20.53;;;6.20;99.90;;;;;;5029774;28;20602;-79
2020/12/18 06:48:51;;;;;;;29.07;21.63;;;6.10;99.90;;;;;;5021112;28;20235;-80
2020/12/18 06:51:46;;;;;;;27.53;20.70;;;6.20;99.90;;;;;;5019982;28;20706;-80
2020/12/18 06:54:25;;;;;;;31.03;21.73;;;6.10;99.90;;;;;;5015650;28;20232;-79
2020/12/18 06:57:22;;;;;;;26.67;20.67;;;6.10;99.90;;;;;;5017814;28;20612;-79
2020/12/18 06:59:49;;;;;;;28.73;21.07;;;6.20;99.90;;;;;;5015038;28;20486;-78
2020/12/18 07:02:35;;;;;;;28.50;21.23;;;6.10;99.90;;;;;;5034983;28;20699;-79
2020/12/18 07:05:03;;;;;;;26.27;20.67;;;6.10;99.90;;;;;;5025290;28;20479;-80
2020/12/18 07:07:40;;;;;;;28.20;20.93;;;6.10;99.90;;;;;;5025775;28;20506;-80
2020/12/18 07:10:09;;;;;;;27.90;19.60;;;6.10;99.90;;;;;;5034926;28;20232;-80
2020/12/18 07:12:37;;;;;;;25.60;19.97;;;6.10;99.90;;;;;;5035198;28;20305;-79
2020/12/18 07:15:06;;;;;;;25.93;19.97;;;6.10;99.90;;;;;;5018576;28;20271;-80
2020/12/18 07:17:33;;;;;;;30.13;20.43;;;6.10;99.90;;;;;;5035333;28;20505;-78
2020/12/18 07:20:01;;;;;;;28.10;20.77;;;6.10;99.90;;;;;;5035609;28;20494;-79
2020/12/18 07:22:29;;;;;;;25.60;19.67;;;6.00;99.90;;;;;;5016809;28;20233;-79
2020/12/18 07:25:12;;;;;;;24.33;18.77;;;6.00;99.90;;;;;;5034090;28;20495;-78
2020/12/18 07:27:41;;;;;;;27.93;19.57;;;6.00;99.90;;;;;;5033534;28;20244;-79
2020/12/18 07:30:12;;;;;;;25.93;19.90;;;6.00;99.90;;;;;;5033563;28;20514;-79
2020/12/18 07:32:43;;;;;;;26.27;18.37;;;6.00;99.90;;;;;;5032801;28;20478;-79
2020/12/18 07:35:13;;;;;;;27.13;18.60;;;6.00;99.90;;;;;;5032306;28;20493;-79
2020/12/18 07:37:41;;;;;;;27.77;18.20;;;6.00;99.90;;;;;;5015806;28;21197;-80
2020/12/18 07:40:08;;;;;;;24.10;17.73;;;6.00;99.90;;;;;;5032649;28;20244;-79
2020/12/18 07:42:41;;;;;;;26.17;18.53;;;6.00;99.90;;;;;;5033366;28;20236;-79
2020/12/18 07:45:10;;;;;;;22.43;17.67;;;6.00;99.90;;;;;;5032282;28;20248;-79
2020/12/18 07:47:39;;;;;;;26.20;18.00;;;6.00;99.90;;;;;;5026988;28;20272;-79
2020/12/18 07:50:08;;;;;;;25.73;18.20;;;5.90;99.90;;;;;;5035068;28;20240;-79
2020/12/18 07:52:36;;;;;;;21.63;17.00;;;5.90;99.90;;;;;;5032115;28;20228;-78
2020/12/18 07:55:04;;;;;;;23.87;16.80;;;5.90;99.90;;;;;;5034567;28;20593;-79
2020/12/18 07:57:33;;;;;;;25.83;16.87;;;5.90;99.90;;;;;;5016221;28;20309;-79
2020/12/18 08:00:09;;;;;;;21.93;16.57;;;5.90;99.90;;;;;;5032758;28;20718;-79
2020/12/18 08:02:40;;;;;;;23.63;16.17;;;6.00;99.90;;;;;;5033282;28;20247;-79
2020/12/18 08:05:07;;;;;;;21.63;15.63;;;5.90;99.90;;;;;;5032598;28;20898;-79
2020/12/18 08:07:35;;;;;;;20.53;14.30;;;6.00;99.90;;;;;;5030434;28;20468;-78
2020/12/18 08:10:04;;;;;;;23.70;15.33;;;6.00;99.90;;;;;;5031659;28;20298;-80
2020/12/18 08:12:31;;;;;;;19.83;14.70;;;6.00;99.90;;;;;;5013402;28;20478;-78
2020/12/18 08:15:14;;;;;;;22.67;13.90;;;6.00;99.90;;;;;;5023130;28;20584;-80
2020/12/18 08:17:42;;;;;;;23.53;14.30;;;6.00;99.90;;;;;;5023182;28;20252;-78
2020/12/18 08:20:13;;;;;;;19.03;13.67;;;6.00;99.90;;;;;;5023143;28;20562;-79
2020/12/18 08:22:45;;;;;;;20.10;13.77;;;6.00;99.90;;;;;;5034426;28;20773;-78
2020/12/18 08:25:16;;;;;;;18.23;12.63;;;6.00;99.90;;;;;;5024586;28;20471;-79
2020/12/18 08:27:49;;;;;;;19.07;13.43;;;6.00;99.90;;;;;;5025082;28;20260;-80
2020/12/18 08:30:19;;;;;;;16.73;12.00;;;6.10;99.90;;;;;;5030685;28;20256;-79
2020/12/18 08:32:54;;;;;;;18.00;12.50;;;6.10;99.90;;;;;;5016593;28;20251;-78
2020/12/18 08:35:23;;;;;;;20.47;11.63;;;6.10;99.90;;;;;;5022523;28;20475;-79
2020/12/18 08:37:51;;;;;;;17.53;11.77;;;6.20;99.90;;;;;;5026911;28;20314;-79
2020/12/18 08:40:21;;;;;;;18.13;11.77;;;6.20;99.90;;;;;;5030719;28;20252;-79
2020/12/18 08:43:01;;;;;;;19.17;13.43;;;6.20;99.90;;;;;;5033404;28;20244;-79
2020/12/18 08:45:30;;;;;;;13.93;10.30;;;6.20;99.90;;;;;;5018606;28;20544;-79
2020/12/18 08:47:57;;;;;;;19.23;12.17;;;6.20;99.90;;;;;;5016643;28;20624;-79
2020/12/18 08:50:25;;;;;;;17.90;12.50;;;6.30;99.90;;;;;;4999014;28;20248;-79
2020/12/18 08:52:53;;;;;;;19.60;12.37;;;6.30;99.90;;;;;;5032958;28;20275;-79
2020/12/18 08:55:22;;;;;;;19.87;12.77;;;6.40;99.90;;;;;;5036518;28;20290;-79
2020/12/18 08:57:49;;;;;;;19.73;12.20;;;6.40;99.90;;;;;;5035725;28;20241;-78
2020/12/18 09:00:18;;;;;;;14.63;9.53;;;6.50;99.90;;;;;;5016609;28;20228;-79
2020/12/18 09:02:57;;;;;;;14.50;9.97;;;6.50;99.90;;;;;;5027739;28;20291;-78
2020/12/18 09:05:27;;;;;;;16.87;9.33;;;6.50;99.90;;;;;;5025494;28;21124;-79
2020/12/18 09:08:00;;;;;;;11.30;8.27;;;6.50;99.90;;;;;;5028481;28;20248;-79
2020/12/18 09:10:40;;;;;;;15.27;8.70;;;6.60;99.90;;;;;;5032675;28;20584;-79
2020/12/18 09:13:17;;;;;;;10.73;8.20;;;6.70;99.90;;;;;;5025804;28;20236;-78
2020/12/18 09:15:50;;;;;;;9.70;7.57;;;6.70;99.90;;;;;;5032219;28;20643;-79
2020/12/18 09:18:24;;;;;;;11.23;7.10;;;6.80;99.90;;;;;;5009199;28;20237;-78
2020/12/18 09:20:53;;;;;;;9.40;7.57;;;6.80;99.90;;;;;;5033662;28;20942;-79
2020/12/18 09:23:29;;;;;;;10.10;7.00;;;6.80;99.90;;;;;;5034211;28;20241;-79
2020/12/18 09:25:59;;;;;;;10.67;7.00;;;6.90;99.90;;;;;;5035131;28;20291;-78
2020/12/18 09:28:28;;;;;;;11.10;6.90;;;6.90;99.90;;;;;;5024833;28;20261;-78
2020/12/18 09:30:57;;;;;;;12.23;6.80;;;7.00;99.90;;;;;;5019311;28;20252;-79
2020/12/18 09:33:30;;;;;;;13.00;6.43;;;7.00;99.90;;;;;;4994915;28;20240;-78
2020/12/18 09:36:01;;;;;;;9.03;6.13;;;7.00;99.90;;;;;;5032740;28;20263;-79
2020/12/18 09:38:30;;;;;;;9.07;6.30;;;7.00;99.90;;;;;;5032443;28;20247;-79
2020/12/18 09:41:00;;;;;;;9.40;5.77;;;7.00;99.90;;;;;;5008148;28;20283;-79
2020/12/18 09:43:28;;;;;;;11.47;6.27;;;7.10;99.90;;;;;;5014803;28;20240;-78
2020/12/18 09:45:56;;;;;;;9.80;6.37;;;7.10;99.90;;;;;;5022448;28;20241;-79
2020/12/18 09:48:26;;;;;;;9.97;6.63;;;7.10;99.90;;;;;;5019069;28;20570;-78
2020/12/18 09:50:56;;;;;;;10.93;6.73;;;7.10;99.90;;;;;;5009581;28;20248;-78
2020/12/18 09:53:24;;;;;;;9.93;7.10;;;7.20;99.90;;;;;;5024690;28;20313;-79
2020/12/18 09:55:52;;;;;;;9.67;7.70;;;7.20;99.90;;;;;;5026430;28;20241;-78
2020/12/18 09:58:24;;;;;;;14.30;8.50;;;7.20;99.90;;;;;;5010780;28;20604;-78
2020/12/18 10:00:51;;;;;;;12.13;7.73;;;7.10;99.90;;;;;;5010821;28;20614;-78
2020/12/18 10:03:18;;;;;;;15.50;8.80;;;7.10;99.90;;;;;;5011759;28;20233;-78
2020/12/18 10:05:47;;;;;;;14.03;8.67;;;7.10;99.90;;;;;;5010967;28;20785;-78
2020/12/18 10:08:15;;;;;;;10.97;8.20;;;7.10;99.90;;;;;;5029018;28;20244;-78
2020/12/18 10:10:43;;;;;;;10.67;7.80;;;7.20;99.90;;;;;;5031511;28;20271;-79
2020/12/18 10:13:10;;;;;;;11.27;6.90;;;7.30;99.90;;;;;;5030884;28;20248;-78
2020/12/18 10:15:37;;;;;;;7.90;6.03;;;7.40;99.90;;;;;;5031094;28;20284;-78
2020/12/18 10:18:05;;;;;;;8.80;6.03;;;7.50;99.90;;;;;;5014260;28;20264;-80
2020/12/18 10:20:33;;;;;;;7.47;5.77;;;7.60;99.90;;;;;;5031255;28;20240;-79
2020/12/18 10:23:01;;;;;;;8.37;5.20;;;7.70;99.90;;;;;;5030670;28;20327;-79
2020/12/18 10:25:28;;;;;;;7.53;5.53;;;7.80;99.90;;;;;;5022690;28;20233;-79
2020/12/18 10:27:56;;;;;;;10.03;5.07;;;7.80;99.90;;;;;;4995504;28;20301;-78
2020/12/18 10:30:23;;;;;;;10.00;4.70;;;7.80;99.90;;;;;;5012048;28;20241;-79
2020/12/18 10:32:50;;;;;;;9.23;4.97;;;7.90;99.90;;;;;;5010876;28;20244;-78
2020/12/18 10:35:18;;;;;;;5.37;4.63;;;8.10;99.90;;;;;;5028240;28;20245;-79
2020/12/18 10:37:47;;;;;;;6.70;4.80;;;8.20;99.90;;;;;;5026605;28;20252;-79
2020/12/18 10:40:15;;;;;;;8.83;5.47;;;8.20;99.90;;;;;;5010188;28;20239;-78
2020/12/18 10:42:43;;;;;;;10.00;4.73;;;8.40;99.90;;;;;;5027647;28;20291;-79
2020/12/18 10:45:11;;;;;;;7.90;4.43;;;8.50;99.90;;;;;;5027997;28;20572;-79
2020/12/18 10:47:38;;;;;;;8.43;4.90;;;8.60;99.90;;;;;;5026643;28;20250;-78
2020/12/18 10:50:06;;;;;;;7.43;4.63;;;8.70;99.90;;;;;;5027497;28;20248;-78
2020/12/18 10:52:33;;;;;;;9.77;7.37;;;8.80;99.90;;;;;;5006919;28;20303;-78
2020/12/18 10:55:00;;;;;;;8.60;5.17;;;9.00;99.90;;;;;;5008507;28;20241;-78
2020/12/18 10:57:29;;;;;;;12.83;5.43;;;9.10;99.90;;;;;;5009362;28;20310;-79
2020/12/18 10:59:56;;;;;;;7.60;5.33;;;9.20;99.90;;;;;;5027744;28;20244;-80
2020/12/18 11:02:24;;;;;;;8.53;4.80;;;9.30;99.90;;;;;;5027216;28;20241;-79
2020/12/18 11:04:51;;;;;;;10.47;4.33;;;9.40;99.90;;;;;;5025179;28;20253;-78
2020/12/18 11:07:18;;;;;;;7.10;4.67;;;9.40;99.90;;;;;;5027610;28;20237;-79
2020/12/18 11:09:46;;;;;;;7.83;4.17;;;9.50;99.90;;;;;;5029071;28;21055;-78
2020/12/18 11:12:14;;;;;;;9.10;4.27;;;9.50;99.90;;;;;;5013010;28;20248;-78
2020/12/18 11:14:43;;;;;;;7.67;4.17;;;9.50;99.90;;;;;;5013049;28;22545;-79
2020/12/18 11:17:10;;;;;;;5.67;3.67;;;9.40;99.90;;;;;;5029991;28;20241;-80
2020/12/18 11:19:38;;;;;;;9.87;4.77;;;9.30;99.90;;;;;;5030882;28;20236;-79
2020/12/18 11:22:05;;;;;;;7.37;4.00;;;9.20;99.90;;;;;;5030262;28;20711;-79
2020/12/18 11:24:33;;;;;;;8.20;4.13;;;9.20;99.90;;;;;;5030665;28;20298;-79
2020/12/18 11:27:00;;;;;;;6.53;3.53;;;9.20;99.90;;;;;;5031138;28;20252;-79
2020/12/18 11:29:27;;;;;;;7.03;3.20;;;9.20;99.90;;;;;;5012853;28;20330;-78
2020/12/18 11:31:56;;;;;;;7.10;3.70;;;9.10;99.90;;;;;;5029313;28;20236;-78
2020/12/18 11:34:23;;;;;;;7.00;3.40;;;9.10;99.90;;;;;;5029098;28;20244;-79
2020/12/18 11:36:51;;;;;;;8.17;3.73;;;9.10;99.90;;;;;;5031583;28;20256;-79
2020/12/18 11:39:18;;;;;;;6.17;3.53;;;9.20;99.90;;;;;;5030940;28;20236;-79
2020/12/18 11:41:47;;;;;;;6.33;3.20;;;9.30;99.90;;;;;;5030342;28;20247;-78
2020/12/18 11:44:15;;;;;;;5.53;3.47;;;9.30;99.90;;;;;;5029785;28;20244;-78
2020/12/18 11:46:42;;;;;;;8.13;3.30;;;9.40;99.90;;;;;;5030833;28;20761;-79
2020/12/18 11:49:11;;;;;;;6.53;3.17;;;9.40;99.90;;;;;;5028417;28;20715;-78
2020/12/18 11:51:38;;;;;;;6.87;3.20;;;9.50;99.90;;;;;;5029584;28;20232;-80
2020/12/18 11:54:06;;;;;;;5.87;3.27;;;9.50;99.90;;;;;;5027160;28;20627;-80
2020/12/18 11:56:33;;;;;;;7.10;3.00;;;9.60;99.90;;;;;;5028929;28;20240;-80
2020/12/18 11:59:00;;;;;;;9.03;3.93;;;9.60;99.90;;;;;;5031236;28;20580;-80
2020/12/18 12:01:29;;;;;;;6.97;3.93;;;9.60;99.90;;;;;;5012246;28;20692;-80
2020/12/18 12:03:56;;;;;;;7.60;3.30;;;9.70;99.90;;;;;;5011510;28;20336;-79
2020/12/18 12:06:25;;;;;;;9.57;4.37;;;9.60;99.90;;;;;;5030403;28;20244;-80
2020/12/18 12:08:52;;;;;;;8.63;4.53;;;9.70;99.90;;;;;;5030292;28;20853;-79
2020/12/18 12:11:20;;;;;;;8.27;3.63;;;9.80;99.90;;;;;;5030697;28;20596;-80
2020/12/18 12:13:48;;;;;;;7.67;3.63;;;9.70;99.90;;;;;;5028904;28;20294;-79
2020/12/18 12:16:15;;;;;;;5.37;3.43;;;9.70;99.90;;;;;;5028051;28;20260;-79
2020/12/18 12:18:44;;;;;;;3.63;2.90;;;9.70;99.90;;;;;;5029877;28;20252;-79
2020/12/18 12:21:12;;;;;;;5.77;3.20;;;9.70;99.90;;;;;;5029172;28;21236;-80
2020/12/18 12:23:40;;;;;;;8.00;3.40;;;9.70;99.90;;;;;;5029122;28;20252;-80
2020/12/18 12:26:11;;;;;;;6.90;3.20;;;9.70;99.90;;;;;;5026702;28;20236;-80
2020/12/18 12:28:39;;;;;;;8.27;3.07;;;9.70;99.90;;;;;;5029469;28;20236;-80
2020/12/18 12:31:07;;;;;;;7.53;3.37;;;9.60;99.90;;;;;;5034711;28;20232;-80
2020/12/18 12:33:35;;;;;;;6.50;3.33;;;9.60;99.90;;;;;;5032054;28;20641;-80
2020/12/18 12:36:02;;;;;;;4.00;3.10;;;9.70;99.90;;;;;;5027370;28;20244;-80
2020/12/18 12:38:29;;;;;;;10.60;3.60;;;9.70;99.90;;;;;;5010864;28;21002;-77
2020/12/18 12:40:58;;;;;;;8.60;3.73;;;9.80;99.90;;;;;;5028892;28;20259;-80
2020/12/18 12:43:25;;;;;;;5.20;3.20;;;9.80;99.90;;;;;;5027461;28;20240;-80
2020/12/18 12:45:53;;;;;;;6.67;3.17;;;9.80;99.90;;;;;;5028897;28;20731;-80
2020/12/18 12:48:23;;;;;;;5.00;3.43;;;9.60;99.90;;;;;;5011582;28;20243;-80
2020/12/18 12:50:50;;;;;;;5.60;3.10;;;9.60;99.90;;;;;;5017156;28;20271;-80
2020/12/18 12:53:17;;;;;;;6.43;2.80;;;9.60;99.90;;;;;;5047567;28;20248;-80
2020/12/18 12:55:47;;;;;;;6.10;3.60;;;9.60;99.90;;;;;;5029617;28;20297;-81
2020/12/18 12:58:15;;;;;;;6.10;2.90;;;9.60;99.90;;;;;;5031131;28;20244;-80
2020/12/18 13:00:42;;;;;;;6.97;3.00;;;9.60;99.90;;;;;;5048512;28;21020;-80
2020/12/18 13:03:11;;;;;;;9.97;4.00;;;9.70;99.90;;;;;;5025977;28;20225;-80
2020/12/18 13:05:39;;;;;;;4.83;3.07;;;9.60;99.90;;;;;;5027890;28;21483;-80
2020/12/18 13:08:12;;;;;;;6.20;3.50;;;9.50;99.90;;;;;;5032703;28;20454;-80
2020/12/18 13:10:40;;;;;;;8.17;4.10;;;9.50;99.90;;;;;;5012743;28;20290;-83